Time;durP1;ratioP1;P1;durP2;ratioP2;P2;SDS_P1;SDS_P2;PMS_P1;PMS_P2;Temp;Humidity;BMP_temperature;BMP_pressure;BME280_temperature;BME280_humidity;BME280_pressure;Samples;Min_cycle;Max_cycle;Signal;HPM_P1;HPM_P2
2022/12/07 00:01:29;;;;;;;12.88;10.55;;;4.40;99.90;;;;;;5072981;28;20030;-78
2022/12/07 00:04:00;;;;;;;10.98;10.00;;;4.20;99.90;;;;;;5089559;28;20024;-78
2022/12/07 00:06:27;;;;;;;10.27;9.15;;;4.30;99.90;;;;;;5089351;28;20054;-78
2022/12/07 00:08:53;;;;;;;12.82;10.55;;;4.10;99.90;;;;;;5107529;28;20032;-78
2022/12/07 00:11:20;;;;;;;10.88;9.98;;;4.00;99.90;;;;;;5107196;28;20031;-78
2022/12/07 00:13:51;;;;;;;11.20;7.65;;;3.90;99.90;;;;;;5089338;28;20051;-78
2022/12/07 00:16:21;;;;;;;15.18;10.15;;;3.80;99.90;;;;;;5107577;28;20020;-78
2022/12/07 00:18:47;;;;;;;11.80;9.48;;;3.70;99.90;;;;;;5072916;28;20482;-78
2022/12/07 00:21:16;;;;;;;12.82;11.73;;;3.60;99.90;;;;;;5072148;28;20031;-78
2022/12/07 00:23:44;;;;;;;9.60;8.70;;;3.60;99.90;;;;;;5089215;28;20032;-78
2022/12/07 00:26:16;;;;;;;10.45;9.63;;;3.60;99.90;;;;;;5107457;28;20137;-78
2022/12/07 00:28:54;;;;;;;10.93;9.90;;;3.60;99.90;;;;;;5089086;28;20039;-78
2022/12/07 00:31:26;;;;;;;12.82;11.27;;;3.70;99.90;;;;;;5106978;28;20050;-78
2022/12/07 00:33:52;;;;;;;11.20;9.65;;;3.70;99.90;;;;;;5089077;28;20024;-78
2022/12/07 00:36:22;;;;;;;12.68;11.45;;;3.80;99.90;;;;;;5072164;28;20077;-77
2022/12/07 00:38:48;;;;;;;14.30;13.00;;;3.80;99.90;;;;;;5088481;28;20058;-78
2022/12/07 00:41:19;;;;;;;12.25;11.07;;;3.90;99.90;;;;;;5088898;28;20100;-78
2022/12/07 00:43:47;;;;;;;10.50;9.55;;;3.90;99.90;;;;;;5107244;28;20028;-78
2022/12/07 00:46:15;;;;;;;12.88;10.30;;;3.90;99.90;;;;;;5088619;28;20020;-78
2022/12/07 00:48:41;;;;;;;12.55;11.32;;;4.00;99.90;;;;;;5105617;28;20056;-78
2022/12/07 00:51:09;;;;;;;16.58;13.18;;;3.90;99.90;;;;;;5088928;28;20040;-78
2022/12/07 00:53:35;;;;;;;16.73;13.25;;;4.00;99.90;;;;;;5088695;28;20043;-78
2022/12/07 00:56:06;;;;;;;17.50;14.02;;;4.00;99.90;;;;;;5071922;28;20031;-78
2022/12/07 00:58:32;;;;;;;14.90;13.60;;;4.00;99.90;;;;;;5106351;28;20032;-78
2022/12/07 01:01:02;;;;;;;15.25;12.95;;;3.90;99.90;;;;;;5106822;28;20028;-78
2022/12/07 01:03:28;;;;;;;15.00;13.57;;;3.80;99.90;;;;;;5088355;28;20371;-78
2022/12/07 01:05:55;;;;;;;13.90;12.68;;;3.80;99.90;;;;;;5088600;28;20030;-78
2022/12/07 01:08:22;;;;;;;12.90;10.82;;;3.80;99.90;;;;;;5068290;28;20036;-78
2022/12/07 01:10:49;;;;;;;15.45;12.98;;;3.80;99.90;;;;;;5086104;28;20084;-78
2022/12/07 01:13:15;;;;;;;18.00;12.55;;;3.80;99.90;;;;;;5086196;28;20221;-78
2022/12/07 01:15:42;;;;;;;13.77;11.95;;;3.80;99.90;;;;;;5068397;28;20024;-78
2022/12/07 01:18:08;;;;;;;14.98;9.63;;;3.70;99.90;;;;;;5087847;28;20107;-78
2022/12/07 01:20:35;;;;;;;15.75;13.30;;;3.60;99.90;;;;;;5106409;28;20032;-78
2022/12/07 01:23:00;;;;;;;12.90;11.02;;;3.60;99.90;;;;;;5106469;28;20028;-78
2022/12/07 01:25:27;;;;;;;13.70;12.30;;;3.60;99.90;;;;;;5106362;28;20382;-78
2022/12/07 01:27:52;;;;;;;17.40;11.60;;;3.50;99.90;;;;;;5067530;28;20032;-78
2022/12/07 01:30:18;;;;;;;12.95;11.60;;;3.40;99.90;;;;;;5068218;28;20094;-78
2022/12/07 01:32:44;;;;;;;14.85;13.38;;;3.40;99.90;;;;;;5086738;28;20032;-78
2022/12/07 01:35:11;;;;;;;14.90;13.32;;;3.40;99.90;;;;;;5088071;28;20051;-78
2022/12/07 01:37:38;;;;;;;13.25;12.13;;;3.50;99.90;;;;;;5105920;28;20048;-78
2022/12/07 01:40:06;;;;;;;15.45;13.93;;;3.50;99.90;;;;;;5071248;28;20028;-78
2022/12/07 01:42:35;;;;;;;13.77;12.20;;;3.50;99.90;;;;;;5087895;28;20031;-78
2022/12/07 01:45:39;;;;;;;14.70;13.27;;;3.50;99.90;;;;;;5087967;28;20032;-78
2022/12/07 01:48:07;;;;;;;14.80;13.30;;;3.50;99.90;;;;;;5105700;28;20086;-78
2022/12/07 01:50:34;;;;;;;14.30;13.00;;;3.50;99.90;;;;;;5106206;28;20050;-78
2022/12/07 01:53:03;;;;;;;13.50;11.75;;;3.40;99.90;;;;;;5071237;28;20025;-78
2022/12/07 01:55:29;;;;;;;13.05;11.75;;;3.40;99.90;;;;;;5087839;28;20024;-78
2022/12/07 01:57:56;;;;;;;19.45;13.95;;;3.40;99.90;;;;;;5071022;28;20051;-78
2022/12/07 02:00:22;;;;;;;15.57;14.25;;;3.50;99.90;;;;;;5089349;28;20020;-78
2022/12/07 02:03:03;;;;;;;14.35;12.60;;;3.50;99.90;;;;;;5091982;28;20083;-78
2022/12/07 02:05:31;;;;;;;15.40;13.98;;;3.50;99.90;;;;;;5091678;28;20058;-78
2022/12/07 02:07:58;;;;;;;14.90;13.48;;;3.60;99.90;;;;;;5091639;28;20114;-78
2022/12/07 02:10:27;;;;;;;15.43;13.95;;;3.70;99.90;;;;;;5091822;28;20028;-78
2022/12/07 02:13:03;;;;;;;15.70;13.90;;;3.70;99.90;;;;;;5109922;28;20433;-78
2022/12/07 02:15:41;;;;;;;17.30;15.73;;;3.80;99.90;;;;;;5110121;28;20386;-78
2022/12/07 02:18:13;;;;;;;17.20;15.43;;;3.80;99.90;;;;;;5109640;28;20028;-78
2022/12/07 02:21:00;;;;;;;14.93;13.48;;;3.90;99.90;;;;;;5109810;28;20028;-78
2022/12/07 02:23:38;;;;;;;14.70;13.30;;;3.90;99.90;;;;;;5109955;28;20050;-78
2022/12/07 02:26:35;;;;;;;17.42;13.07;;;3.90;99.90;;;;;;5109589;28;20087;-78
2022/12/07 02:29:33;;;;;;;16.40;13.68;;;4.00;99.90;;;;;;5074573;28;20057;-78
2022/12/07 02:32:12;;;;;;;14.70;13.30;;;4.00;99.90;;;;;;5109668;28;20035;-78
2022/12/07 02:34:48;;;;;;;14.80;13.50;;;4.00;99.90;;;;;;5109621;28;20024;-78
2022/12/07 02:37:34;;;;;;;14.30;12.63;;;4.00;99.90;;;;;;5109477;28;20059;-78
2022/12/07 02:40:10;;;;;;;15.52;13.88;;;4.10;99.90;;;;;;5091263;28;20038;-78
2022/12/07 02:42:55;;;;;;;13.38;12.18;;;4.10;99.90;;;;;;5091160;28;20046;-78
2022/12/07 02:45:25;;;;;;;16.05;14.50;;;4.10;99.90;;;;;;5074400;28;20042;-78
2022/12/07 02:47:53;;;;;;;13.27;12.27;;;4.10;99.90;;;;;;5108754;28;20024;-78
2022/12/07 02:50:22;;;;;;;13.38;12.23;;;4.10;99.90;;;;;;5109279;28;20055;-78
2022/12/07 02:52:48;;;;;;;13.65;12.30;;;4.10;99.90;;;;;;5109377;28;20028;-78
2022/12/07 02:55:16;;;;;;;14.23;12.88;;;4.20;99.90;;;;;;5090797;28;20115;-78
2022/12/07 02:58:09;;;;;;;11.85;10.75;;;4.30;99.90;;;;;;5108591;28;20363;-78
2022/12/07 03:00:54;;;;;;;15.20;13.77;;;4.30;99.90;;;;;;5068194;28;20075;-78
2022/12/07 03:03:21;;;;;;;13.27;11.32;;;4.30;99.90;;;;;;5074022;28;20024;-78
2022/12/07 03:06:04;;;;;;;14.82;11.93;;;4.30;99.90;;;;;;5108769;28;20043;-79
2022/12/07 03:09:14;;;;;;;13.52;12.20;;;4.30;99.90;;;;;;5108957;28;20493;-78
2022/12/07 03:12:09;;;;;;;12.65;11.35;;;4.40;99.90;;;;;;5047362;28;20033;-78
2022/12/07 03:14:53;;;;;;;12.15;10.88;;;4.40;99.90;;;;;;5087758;28;20052;-78
2022/12/07 03:17:30;;;;;;;11.30;10.23;;;4.30;99.90;;;;;;5090406;28;20050;-78
2022/12/07 03:20:00;;;;;;;11.07;9.90;;;4.20;99.90;;;;;;5108718;28;20020;-78
2022/12/07 03:22:30;;;;;;;12.00;8.90;;;4.10;99.90;;;;;;5108314;28;20024;-78
2022/12/07 03:25:00;;;;;;;9.48;8.57;;;3.90;99.90;;;;;;5090499;28;20387;-78
2022/12/07 03:27:32;;;;;;;9.70;8.80;;;3.80;99.90;;;;;;5108408;28;20040;-78
2022/12/07 03:30:02;;;;;;;7.47;6.93;;;3.70;99.90;;;;;;5108524;28;20103;-78
2022/12/07 03:32:36;;;;;;;;;;;3.70;99.90;;;;;;5108875;28;20024;-78
2022/12/07 03:35:08;;;;;;;9.95;8.80;;;3.60;99.90;;;;;;5089987;28;19915;-78
2022/12/07 03:37:47;;;;;;;12.35;10.25;;;3.60;99.90;;;;;;5073345;28;20082;-78
2022/12/07 03:40:16;;;;;;;10.77;9.95;;;3.60;99.90;;;;;;5108371;28;20077;-78
2022/12/07 03:42:45;;;;;;;10.98;9.90;;;3.60;99.90;;;;;;5089844;28;20107;-78
2022/12/07 03:45:12;;;;;;;10.10;8.75;;;3.50;99.90;;;;;;5089888;28;20089;-78
2022/12/07 03:48:18;;;;;;;8.85;7.97;;;3.50;99.90;;;;;;5089764;28;20023;-77
2022/12/07 03:50:57;;;;;;;12.30;9.18;;;3.50;99.90;;;;;;5052410;28;20043;-78
2022/12/07 03:53:36;;;;;;;10.15;9.27;;;3.50;99.90;;;;;;5107972;28;20027;-78
2022/12/07 03:56:02;;;;;;;14.23;12.85;;;3.50;99.90;;;;;;5090219;28;20031;-78
2022/12/07 03:58:30;;;;;;;11.63;10.43;;;3.50;99.90;;;;;;5089573;28;20036;-79
2022/12/07 04:00:55;;;;;;;12.65;10.55;;;3.40;99.90;;;;;;5089677;28;20039;-78
2022/12/07 04:03:21;;;;;;;12.32;8.05;;;3.30;99.90;;;;;;5107582;28;20028;-78
2022/12/07 04:05:48;;;;;;;12.40;10.73;;;3.20;99.90;;;;;;5089530;28;20039;-78
2022/12/07 04:08:13;;;;;;;11.82;9.55;;;3.10;99.90;;;;;;5089778;28;20049;-78
2022/12/07 04:10:39;;;;;;;9.68;8.98;;;2.90;99.90;;;;;;5107825;28;20024;-78
2022/12/07 04:13:05;;;;;;;11.60;10.57;;;3.00;99.90;;;;;;5107318;28;20052;-78
2022/12/07 04:15:31;;;;;;;11.40;9.43;;;2.90;99.90;;;;;;5072773;28;20040;-78
2022/12/07 04:17:57;;;;;;;11.35;9.07;;;2.90;99.90;;;;;;5089614;28;20028;-78
2022/12/07 04:20:23;;;;;;;11.02;10.02;;;3.00;99.90;;;;;;5089431;28;20415;-78
2022/12/07 04:22:49;;;;;;;14.73;11.18;;;3.00;99.90;;;;;;5089304;28;20092;-78
2022/12/07 04:25:15;;;;;;;13.95;12.52;;;3.10;99.90;;;;;;5106963;28;20043;-78
2022/12/07 04:27:41;;;;;;;14.18;10.15;;;3.30;99.90;;;;;;5107283;28;20027;-78
2022/12/07 04:30:08;;;;;;;12.38;11.35;;;3.30;99.90;;;;;;5072408;28;20028;-78
2022/12/07 04:32:34;;;;;;;12.57;11.32;;;3.40;99.90;;;;;;5088848;28;20032;-78
2022/12/07 04:35:04;;;;;;;18.63;13.20;;;3.50;99.90;;;;;;5106770;28;20024;-78
2022/12/07 04:37:29;;;;;;;13.23;12.02;;;3.60;99.90;;;;;;5072321;28;20489;-78
2022/12/07 04:39:55;;;;;;;15.20;13.75;;;3.60;99.90;;;;;;5088729;28;20040;-78
2022/12/07 04:42:21;;;;;;;24.42;13.63;;;3.60;99.90;;;;;;5088928;28;20024;-78
2022/12/07 04:44:47;;;;;;;14.13;12.82;;;3.70;99.90;;;;;;5088841;28;20036;-78
2022/12/07 04:47:13;;;;;;;15.65;12.30;;;3.70;99.90;;;;;;5088641;28;20482;-78
2022/12/07 04:49:39;;;;;;;13.32;11.95;;;3.70;99.90;;;;;;5088741;28;20046;-78
2022/12/07 04:52:05;;;;;;;14.13;12.95;;;3.70;99.90;;;;;;5106924;28;20106;-78
2022/12/07 04:54:31;;;;;;;14.57;11.98;;;3.80;99.90;;;;;;5088353;28;20035;-79
2022/12/07 04:56:57;;;;;;;13.30;12.00;;;3.80;99.90;;;;;;5088873;28;20035;-78
2022/12/07 04:59:23;;;;;;;13.20;11.48;;;3.90;99.90;;;;;;5106734;28;20048;-78
2022/12/07 05:01:49;;;;;;;14.98;13.43;;;3.90;99.90;;;;;;5106716;28;20032;-78
2022/12/07 05:04:15;;;;;;;18.52;13.68;;;3.90;99.90;;;;;;5106231;28;20036;-78
2022/12/07 05:06:41;;;;;;;13.75;12.50;;;4.00;99.90;;;;;;5106733;28;20363;-78
2022/12/07 05:09:08;;;;;;;13.40;11.10;;;4.10;99.90;;;;;;5088161;28;20470;-79
2022/12/07 05:11:39;;;;;;;12.35;11.15;;;4.00;99.90;;;;;;5106598;28;20031;-78
2022/12/07 05:14:08;;;;;;;11.40;10.40;;;4.20;99.90;;;;;;5088196;28;20032;-79
2022/12/07 05:16:34;;;;;;;14.83;12.33;;;4.00;99.90;;;;;;5088372;28;20040;-78
2022/12/07 05:19:00;;;;;;;11.93;10.15;;;4.00;99.90;;;;;;5088299;28;20278;-78
2022/12/07 05:21:26;;;;;;;12.77;11.50;;;4.10;99.90;;;;;;5088226;28;20115;-78
2022/12/07 05:23:51;;;;;;;13.07;11.80;;;4.10;99.90;;;;;;5087790;28;20020;-78
2022/12/07 05:26:21;;;;;;;12.57;11.27;;;4.10;99.90;;;;;;5105099;28;20024;-79
2022/12/07 05:28:54;;;;;;;11.83;10.63;;;4.10;99.90;;;;;;5105624;28;20502;-78
2022/12/07 05:31:21;;;;;;;11.13;10.25;;;4.10;99.90;;;;;;5088253;28;20328;-78
2022/12/07 05:33:47;;;;;;;12.10;10.98;;;4.10;99.90;;;;;;5088003;28;20413;-78
2022/12/07 05:36:14;;;;;;;12.93;11.57;;;4.20;99.90;;;;;;5105271;28;20026;-79
2022/12/07 05:38:40;;;;;;;14.10;11.73;;;4.20;99.90;;;;;;5106015;28;20105;-79
2022/12/07 05:41:07;;;;;;;15.55;12.75;;;4.30;99.90;;;;;;5106144;28;20050;-79
2022/12/07 05:43:33;;;;;;;15.52;12.27;;;4.30;99.90;;;;;;5071036;28;20028;-79
2022/12/07 05:45:59;;;;;;;16.17;9.68;;;4.30;99.90;;;;;;5087960;28;20032;-79
2022/12/07 05:48:25;;;;;;;11.32;10.13;;;4.30;99.90;;;;;;5105970;28;20024;-79
2022/12/07 05:50:52;;;;;;;11.15;9.95;;;4.40;99.90;;;;;;5088187;28;20475;-78
2022/12/07 05:53:18;;;;;;;20.02;10.77;;;4.40;99.90;;;;;;5105939;28;20021;-79
2022/12/07 05:55:44;;;;;;;19.35;8.85;;;4.40;99.90;;;;;;5087620;28;20024;-78
2022/12/07 06:00:57;;;;;;;13.55;9.05;;;4.30;99.90;;;;;;5087923;28;20028;-79
2022/12/07 06:03:23;;;;;;;7.88;7.03;;;4.30;99.90;;;;;;5087870;28;20028;-78
2022/12/07 06:05:51;;;;;;;7.88;7.18;;;4.30;99.90;;;;;;5087423;28;20039;-79
2022/12/07 06:08:17;;;;;;;9.45;6.82;;;4.30;99.90;;;;;;5087861;28;20032;-79
2022/12/07 06:10:43;;;;;;;9.25;7.13;;;4.30;99.90;;;;;;5105797;28;20028;-79
2022/12/07 06:13:09;;;;;;;8.48;6.47;;;4.30;99.90;;;;;;5087859;28;20015;-79
2022/12/07 06:15:38;;;;;;;6.72;5.93;;;4.30;99.90;;;;;;5087544;28;20024;-79
2022/12/07 06:18:04;;;;;;;10.32;6.82;;;4.30;99.90;;;;;;5106005;28;20039;-79
2022/12/07 06:20:30;;;;;;;11.95;6.85;;;4.30;99.90;;;;;;5105884;28;20032;-79
2022/12/07 06:22:56;;;;;;;6.07;5.63;;;4.10;99.90;;;;;;5087664;28;20024;-79
2022/12/07 06:25:22;;;;;;;7.95;5.60;;;4.10;99.90;;;;;;5070552;28;20028;-79
2022/12/07 06:27:47;;;;;;;6.22;4.97;;;4.00;99.90;;;;;;5070792;28;20055;-79
2022/12/07 06:30:13;;;;;;;9.18;5.07;;;4.00;99.90;;;;;;5070857;28;20029;-79
2022/12/07 06:32:42;;;;;;;5.28;4.88;;;3.80;99.90;;;;;;5102374;28;20044;-79
2022/12/07 06:35:08;;;;;;;8.60;6.60;;;3.80;99.90;;;;;;5076141;28;20055;-77
2022/12/07 06:37:34;;;;;;;6.80;5.57;;;3.70;99.90;;;;;;5069069;28;20044;-78
2022/12/07 06:40:00;;;;;;;8.15;7.28;;;3.60;99.90;;;;;;5089719;28;20481;-78
2022/12/07 06:42:25;;;;;;;11.52;7.45;;;3.60;99.90;;;;;;5085528;28;20100;-78
2022/12/07 06:44:51;;;;;;;7.85;7.20;;;3.60;99.90;;;;;;5069358;28;20052;-78
2022/12/07 06:47:17;;;;;;;10.20;7.80;;;3.60;99.90;;;;;;5087489;28;20060;-78
2022/12/07 06:49:43;;;;;;;9.82;8.10;;;3.70;99.90;;;;;;5083549;28;20028;-78
2022/12/07 06:52:09;;;;;;;10.05;8.32;;;3.70;99.90;;;;;;5041143;28;20109;-78
2022/12/07 06:54:34;;;;;;;8.90;8.00;;;3.80;99.90;;;;;;5109349;28;20056;-78
2022/12/07 06:57:00;;;;;;;13.68;8.65;;;3.80;99.90;;;;;;5107972;28;20024;-78
2022/12/07 06:59:26;;;;;;;10.18;8.60;;;3.80;99.90;;;;;;5079172;28;20048;-78
2022/12/07 07:01:52;;;;;;;10.18;9.38;;;3.80;99.90;;;;;;5110176;28;20058;-78
2022/12/07 07:04:18;;;;;;;9.77;8.90;;;3.70;99.90;;;;;;5063462;28;20043;-78
2022/12/07 07:06:44;;;;;;;11.27;9.10;;;3.50;99.90;;;;;;5069730;28;20111;-78
2022/12/07 07:09:09;;;;;;;11.57;9.45;;;3.50;99.90;;;;;;5089895;28;20032;-78
2022/12/07 07:11:35;;;;;;;13.30;11.18;;;3.40;99.90;;;;;;5089771;28;20505;-78
2022/12/07 07:14:02;;;;;;;11.85;10.60;;;3.30;99.90;;;;;;5092085;28;20040;-78
2022/12/07 07:16:31;;;;;;;12.90;11.52;;;3.30;99.90;;;;;;5075264;28;20040;-78
2022/12/07 07:18:57;;;;;;;12.80;11.60;;;3.10;99.90;;;;;;5106685;28;20036;-78
2022/12/07 07:21:22;;;;;;;15.30;12.05;;;3.10;99.90;;;;;;5109193;28;20023;-78
2022/12/07 07:23:48;;;;;;;12.98;11.88;;;3.10;99.90;;;;;;5083777;28;20025;-78
2022/12/07 07:26:14;;;;;;;13.43;12.13;;;3.10;99.90;;;;;;5057047;28;20036;-78
2022/12/07 07:28:40;;;;;;;15.05;13.65;;;3.00;99.90;;;;;;5089691;28;20035;-78
2022/12/07 07:31:06;;;;;;;12.70;11.55;;;3.00;99.90;;;;;;5074912;28;20391;-78
2022/12/07 07:33:32;;;;;;;15.60;14.13;;;2.90;99.90;;;;;;5093007;28;20024;-78
2022/12/07 07:35:58;;;;;;;15.32;13.82;;;2.90;99.90;;;;;;5073450;28;20043;-78
2022/12/07 07:38:24;;;;;;;16.35;14.95;;;2.90;99.90;;;;;;5090259;28;20119;-78
2022/12/07 07:40:50;;;;;;;16.13;14.70;;;3.00;99.90;;;;;;5105965;28;20032;-78
2022/12/07 07:43:16;;;;;;;22.15;17.60;;;3.00;99.90;;;;;;5085427;28;20033;-78
2022/12/07 07:45:41;;;;;;;19.80;17.83;;;3.10;99.90;;;;;;5078963;28;20024;-78
2022/12/07 07:48:07;;;;;;;27.02;18.27;;;3.20;99.90;;;;;;5120096;28;20035;-78
2022/12/07 07:50:33;;;;;;;22.13;18.35;;;3.20;99.90;;;;;;5104945;28;20029;-78
2022/12/07 07:53:00;;;;;;;30.70;27.30;;;3.20;99.90;;;;;;5107065;28;20035;-78
2022/12/07 07:55:26;;;;;;;33.25;24.77;;;3.30;99.90;;;;;;5105003;28;20035;-78
2022/12/07 07:57:51;;;;;;;64.28;47.17;;;3.30;99.90;;;;;;5083824;28;20023;-78
2022/12/07 08:00:18;;;;;;;45.58;31.73;;;3.30;99.90;;;;;;5107104;28;20034;-78
2022/12/07 08:02:45;;;;;;;42.38;32.47;;;3.30;99.90;;;;;;5069621;28;21788;-78
2022/12/07 08:05:12;;;;;;;40.08;34.17;;;3.30;99.90;;;;;;5064468;28;20036;-78
2022/12/07 08:07:38;;;;;;;45.95;31.92;;;3.30;99.90;;;;;;5078213;28;20038;-79
2022/12/07 08:10:05;;;;;;;81.60;56.33;;;3.30;99.90;;;;;;5088940;28;20028;-79
2022/12/07 08:12:31;;;;;;;47.58;31.55;;;3.30;99.90;;;;;;5104946;28;20057;-79
2022/12/07 08:14:57;;;;;;;37.15;26.95;;;3.30;99.90;;;;;;5088740;28;20028;-79
2022/12/07 08:17:22;;;;;;;36.80;25.17;;;3.30;99.90;;;;;;5051879;28;20074;-79
2022/12/07 08:19:48;;;;;;;43.65;28.80;;;3.30;99.90;;;;;;5103857;28;20035;-79
2022/12/07 08:22:14;;;;;;;31.55;25.92;;;3.30;99.90;;;;;;5088271;28;20481;-79
2022/12/07 08:24:40;;;;;;;30.73;26.58;;;3.20;99.90;;;;;;5087879;28;20028;-79
2022/12/07 08:27:05;;;;;;;34.72;29.45;;;3.30;99.90;;;;;;5107205;28;20085;-79
2022/12/07 08:29:31;;;;;;;33.83;30.05;;;3.60;99.90;;;;;;5088309;28;20103;-79
2022/12/07 08:31:57;;;;;;;34.72;28.40;;;3.90;99.90;;;;;;5088753;28;20032;-79
2022/12/07 08:34:23;;;;;;;29.58;26.23;;;4.20;99.90;;;;;;5088445;28;20024;-79
2022/12/07 08:36:49;;;;;;;33.42;25.40;;;4.40;99.90;;;;;;5106828;28;20040;-79
2022/12/07 08:39:14;;;;;;;29.70;23.73;;;4.60;99.90;;;;;;5106539;28;20051;-79
2022/12/07 08:41:40;;;;;;;35.33;23.27;;;4.90;99.90;;;;;;5106429;28;20024;-80
2022/12/07 08:44:06;;;;;;;27.80;24.85;;;4.90;99.90;;;;;;5088748;28;20040;-79
2022/12/07 08:46:40;;;;;;;28.13;20.85;;;5.00;99.90;;;;;;5088324;28;20032;-79
2022/12/07 08:49:06;;;;;;;29.90;21.50;;;5.10;99.90;;;;;;5088433;28;20055;-79
2022/12/07 08:51:32;;;;;;;27.00;18.48;;;5.00;99.90;;;;;;5086845;28;20066;-79
2022/12/07 08:54:01;;;;;;;20.80;17.83;;;4.90;99.90;;;;;;5106699;28;20035;-79
2022/12/07 08:56:27;;;;;;;23.27;19.17;;;4.80;99.90;;;;;;5105778;28;20044;-79
2022/12/07 08:58:53;;;;;;;19.52;17.13;;;5.20;99.90;;;;;;5068493;28;20463;-79
2022/12/07 09:01:19;;;;;;;17.17;14.65;;;6.10;99.90;;;;;;5067620;28;20036;-79
2022/12/07 09:03:45;;;;;;;17.10;13.95;;;7.40;99.90;;;;;;5066601;28;20032;-79
2022/12/07 09:06:10;;;;;;;12.73;11.50;;;7.60;99.90;;;;;;5066783;28;20031;-79
2022/12/07 09:08:40;;;;;;;13.05;11.70;;;7.80;99.90;;;;;;5069885;28;20028;-79
2022/12/07 09:11:06;;;;;;;11.63;9.90;;;8.00;99.90;;;;;;5085677;28;20107;-79
2022/12/07 09:13:32;;;;;;;8.20;7.35;;;7.20;99.90;;;;;;5050610;28;20506;-79
2022/12/07 09:15:58;;;;;;;10.32;9.10;;;6.80;99.90;;;;;;5079937;28;20109;-79
2022/12/07 09:18:24;;;;;;;12.25;11.13;;;6.80;99.90;;;;;;5069951;28;20057;-79
2022/12/07 09:20:50;;;;;;;10.50;9.40;;;7.70;99.90;;;;;;5070308;28;20035;-79
2022/12/07 09:23:16;;;;;;;7.75;7.03;;;9.60;99.90;;;;;;5070380;28;20040;-79
2022/12/07 09:25:42;;;;;;;9.75;7.38;;;10.10;99.90;;;;;;5084893;28;20028;-79
2022/12/07 09:28:08;;;;;;;12.02;7.55;;;10.80;99.90;;;;;;5087019;28;20039;-79
2022/12/07 09:30:34;;;;;;;7.50;6.85;;;10.00;99.90;;;;;;5105481;28;20020;-79
2022/12/07 09:33:00;;;;;;;8.88;6.43;;;9.20;99.90;;;;;;5086999;28;20030;-79
2022/12/07 09:35:26;;;;;;;8.38;6.40;;;8.60;99.90;;;;;;5105740;28;20087;-79
2022/12/07 09:37:52;;;;;;;9.80;6.35;;;8.10;99.90;;;;;;5070339;28;20044;-80
2022/12/07 09:40:20;;;;;;;9.30;6.32;;;7.90;99.90;;;;;;5105315;28;20084;-78
2022/12/07 09:42:51;;;;;;;9.90;6.75;;;7.70;99.90;;;;;;5087385;28;20044;-79
2022/12/07 09:45:20;;;;;;;11.05;7.85;;;7.80;99.90;;;;;;5104094;28;20031;-79
2022/12/07 09:47:45;;;;;;;8.80;5.82;;;7.90;99.90;;;;;;5086803;28;20065;-79
2022/12/07 09:50:20;;;;;;;8.48;5.55;;;8.00;99.90;;;;;;5105281;28;20103;-79
2022/12/07 09:52:48;;;;;;;12.60;6.93;;;7.90;99.90;;;;;;5103573;28;20024;-79
2022/12/07 09:55:19;;;;;;;9.52;6.60;;;7.90;99.90;;;;;;5105202;28;20107;-79
2022/12/07 09:57:45;;;;;;;9.48;6.03;;;7.70;99.90;;;;;;5085937;28;20065;-79
2022/12/07 10:00:17;;;;;;;9.70;5.85;;;7.60;99.90;;;;;;5087279;28;20046;-79
2022/12/07 10:02:49;;;;;;;6.97;6.30;;;7.40;99.90;;;;;;5104851;28;20032;-80
2022/12/07 10:05:41;;;;;;;9.93;8.75;;;7.40;99.90;;;;;;5087045;28;20055;-79
2022/12/07 10:08:12;;;;;;;6.25;4.85;;;7.50;99.90;;;;;;5086881;28;20040;-79
2022/12/07 10:10:39;;;;;;;8.48;6.00;;;7.60;99.90;;;;;;5087497;28;20052;-79
2022/12/07 10:13:13;;;;;;;12.18;7.80;;;7.50;99.90;;;;;;5105710;28;20504;-79
2022/12/07 10:15:49;;;;;;;7.15;6.35;;;7.50;99.90;;;;;;5086900;28;20445;-79
2022/12/07 10:18:20;;;;;;;6.38;5.30;;;7.50;99.90;;;;;;5105467;28;20036;-79
2022/12/07 10:20:48;;;;;;;8.65;6.20;;;7.50;99.90;;;;;;5105530;28;20096;-79
2022/12/07 10:23:16;;;;;;;6.63;6.00;;;7.80;99.90;;;;;;5091524;28;20553;-78
2022/12/07 10:25:42;;;;;;;5.80;4.85;;;8.00;99.90;;;;;;5109349;28;20024;-79
2022/12/07 10:28:08;;;;;;;7.30;4.60;;;8.40;99.90;;;;;;5109350;28;20579;-79
2022/12/07 10:31:01;;;;;;;8.02;4.63;;;10.60;99.90;;;;;;5108590;28;20016;-79
2022/12/07 10:33:29;;;;;;;5.88;3.70;;;12.80;99.90;;;;;;5109384;28;20020;-79
2022/12/07 10:35:55;;;;;;;6.32;3.28;;;14.30;99.90;;;;;;5090793;28;20123;-79
2022/12/07 10:38:21;;;;;;;5.18;3.20;;;15.40;99.90;;;;;;5090572;28;20040;-79
2022/12/07 10:40:47;;;;;;;6.13;3.42;;;15.80;99.90;;;;;;5070563;28;20055;-79
2022/12/07 10:43:12;;;;;;;4.47;3.53;;;14.50;99.90;;;;;;5099234;28;20053;-79
2022/12/07 10:45:58;;;;;;;7.38;3.47;;;13.20;99.90;;;;;;5090666;28;20028;-79
2022/12/07 10:48:36;;;;;;;3.97;3.40;;;12.60;99.90;;;;;;5049340;28;20040;-79
2022/12/07 10:51:11;;;;;;;5.35;3.63;;;13.00;99.90;;;;;;5089955;28;20031;-79
2022/12/07 10:54:20;;;;;;;4.38;3.55;;;13.00;99.90;;;;;;5108600;28;20027;-79
2022/12/07 10:56:58;;;;;;;3.55;3.08;;;12.30;99.90;;;;;;5108662;28;20032;-79
2022/12/07 10:59:52;;;;;;;3.25;2.80;;;13.00;99.90;;;;;;5090346;28;20474;-79
2022/12/07 11:02:33;;;;;;;7.43;4.60;;;13.60;99.90;;;;;;5108885;28;20020;-79
2022/12/07 11:05:09;;;;;;;7.03;3.85;;;13.40;99.90;;;;;;5090571;28;20394;-79
2022/12/07 11:08:27;;;;;;;3.83;2.85;;;13.70;99.90;;;;;;5090487;28;20066;-79
2022/12/07 11:11:06;;;;;;;4.68;2.35;;;14.00;99.90;;;;;;5055420;28;20518;-79
2022/12/07 11:13:47;;;;;;;5.70;5.03;;;14.00;99.90;;;;;;5108699;28;20038;-79
2022/12/07 11:16:23;;;;;;;3.97;3.58;;;13.80;99.90;;;;;;5090699;28;20028;-78
2022/12/07 11:19:30;;;;;;;4.93;4.43;;;13.60;99.90;;;;;;5090284;28;20106;-79
2022/12/07 11:22:08;;;;;;;6.30;2.75;;;13.60;99.90;;;;;;5070278;28;20575;-79
2022/12/07 11:24:49;;;;;;;3.30;2.47;;;13.10;99.90;;;;;;5093926;28;20084;-79
2022/12/07 11:27:38;;;;;;;2.42;2.22;;;12.90;99.90;;;;;;5090212;28;20032;-79
2022/12/07 11:30:20;;;;;;;6.47;2.87;;;12.60;99.90;;;;;;5072594;28;20036;-79
2022/12/07 11:33:24;;;;;;;3.03;2.70;;;12.70;99.90;;;;;;5107346;28;20024;-79
2022/12/07 11:36:10;;;;;;;5.88;2.92;;;12.70;99.90;;;;;;5076995;28;20063;-79
2022/12/07 11:38:51;;;;;;;4.10;2.10;;;12.80;99.90;;;;;;5073109;28;20119;-79
2022/12/07 11:41:26;;;;;;;5.68;2.30;;;12.70;99.90;;;;;;5089846;28;20035;-79
2022/12/07 11:44:07;;;;;;;3.15;1.75;;;12.50;99.90;;;;;;5089693;28;20097;-79
2022/12/07 11:46:46;;;;;;;2.00;1.65;;;12.30;99.90;;;;;;5107838;28;20126;-79
2022/12/07 11:49:37;;;;;;;8.77;2.10;;;12.00;99.90;;;;;;5072932;28;20032;-78
2022/12/07 11:52:05;;;;;;;6.05;2.75;;;11.50;99.90;;;;;;5087881;28;20036;-78
2022/12/07 11:54:42;;;;;;;7.07;3.80;;;11.40;99.90;;;;;;5095079;28;20090;-79
2022/12/07 11:57:17;;;;;;;4.97;4.40;;;11.50;99.90;;;;;;5107577;28;20032;-78
2022/12/07 11:59:52;;;;;;;3.65;3.42;;;11.60;99.90;;;;;;5089598;28;20077;-78
2022/12/07 12:02:46;;;;;;;7.95;3.38;;;11.30;99.90;;;;;;5069472;28;20029;-78
2022/12/07 12:05:22;;;;;;;13.40;3.60;;;11.20;99.90;;;;;;5085366;28;20044;-78
2022/12/07 12:07:56;;;;;;;4.10;3.03;;;11.30;99.90;;;;;;5069517;28;20028;-78
2022/12/07 12:10:41;;;;;;;8.82;3.08;;;11.30;99.90;;;;;;5107396;28;20130;-78
2022/12/07 12:13:23;;;;;;;7.35;2.72;;;11.30;99.90;;;;;;5107808;28;20035;-78
2022/12/07 12:16:26;;;;;;;7.25;5.18;;;11.20;99.90;;;;;;5072109;28;20024;-78
2022/12/07 12:19:16;;;;;;;11.55;4.10;;;11.10;99.90;;;;;;5107289;28;20032;-78
2022/12/07 12:21:43;;;;;;;8.45;2.78;;;10.90;99.90;;;;;;5092847;28;20028;-78
2022/12/07 12:24:15;;;;;;;4.00;3.35;;;10.60;99.90;;;;;;5088908;28;20034;-79
2022/12/07 12:26:51;;;;;;;16.52;3.05;;;10.40;99.90;;;;;;5106995;28;20032;-79
2022/12/07 12:29:23;;;;;;;4.22;3.15;;;10.40;99.90;;;;;;5088757;28;20028;-78
2022/12/07 12:32:14;;;;;;;9.80;5.47;;;10.40;99.90;;;;;;5068857;28;20032;-79
2022/12/07 12:34:47;;;;;;;5.63;3.83;;;10.20;99.90;;;;;;5085379;28;20028;-79
2022/12/07 12:37:32;;;;;;;10.77;6.95;;;10.20;99.90;;;;;;5087478;28;20089;-79
2022/12/07 12:40:14;;;;;;;6.88;4.95;;;10.00;99.90;;;;;;5088316;28;20035;-78
2022/12/07 12:42:48;;;;;;;6.78;3.85;;;9.70;99.90;;;;;;5073686;28;20032;-78
2022/12/07 12:45:19;;;;;;;2.63;2.38;;;9.80;99.90;;;;;;5087767;28;20032;-78
2022/12/07 12:48:29;;;;;;;6.07;4.25;;;9.50;99.90;;;;;;5088068;28;20082;-78
2022/12/07 12:51:18;;;;;;;;;;;9.40;99.90;;;;;;4989102;28;20034;-78
2022/12/07 12:53:51;;;;;;;8.65;1.92;;;9.40;99.90;;;;;;5070640;28;20332;-79
2022/12/07 12:56:46;;;;;;;2.70;2.50;;;9.20;99.90;;;;;;5106469;28;20029;-79
2022/12/07 12:59:23;;;;;;;4.10;2.30;;;9.10;99.90;;;;;;5088567;28;20063;-78
2022/12/07 13:01:52;;;;;;;6.93;6.03;;;8.90;99.90;;;;;;5091043;28;20023;-78
2022/12/07 13:04:29;;;;;;;5.20;3.50;;;8.90;99.90;;;;;;5106520;28;20077;-78
2022/12/07 13:06:56;;;;;;;3.83;2.80;;;8.80;99.90;;;;;;5088398;28;20123;-79